createdAt,value
2023-03-24T00:00:21.683Z,93.50
2023-03-24T00:01:02.312Z,93.40
2023-03-24T00:01:34.077Z,93.50
2023-03-24T00:02:07.081Z,93.40
2023-03-24T00:02:42.007Z,93.50
2023-03-24T00:03:17.247Z,93.50
2023-03-24T00:03:52.116Z,93.50
2023-03-24T00:04:27.662Z,93.50
2023-03-24T00:04:59.497Z,93.50
2023-03-24T00:05:31.407Z,93.50
2023-03-24T00:06:05.131Z,93.50
2023-03-24T00:06:36.938Z,93.50
2023-03-24T00:07:14.731Z,93.50
2023-03-24T00:07:47.052Z,93.50
2023-03-24T00:08:18.893Z,93.50
2023-03-24T00:08:50.785Z,93.50
2023-03-24T00:09:22.681Z,93.50
2023-03-24T00:09:54.516Z,93.60
2023-03-24T00:10:30.535Z,93.50
2023-03-24T00:11:06.367Z,93.50
2023-03-24T00:11:38.449Z,93.50
2023-03-24T00:12:13.910Z,93.50
2023-03-24T00:12:46.748Z,93.50
2023-03-24T00:13:18.545Z,93.50
2023-03-24T00:13:50.710Z,93.50
2023-03-24T00:14:23.415Z,93.50
2023-03-24T00:14:55.223Z,93.50
2023-03-24T00:15:27.957Z,93.60
2023-03-24T00:15:59.986Z,93.60
2023-03-24T00:16:34.858Z,93.50
2023-03-24T00:17:12.594Z,93.60
2023-03-24T00:17:45.349Z,93.50
2023-03-24T00:18:18.338Z,93.60
2023-03-24T00:18:53.536Z,93.50
2023-03-24T00:19:26.274Z,93.50
2023-03-24T00:19:58.087Z,93.60
2023-03-24T00:20:30.026Z,93.60
2023-03-24T00:21:01.816Z,93.60
2023-03-24T00:21:33.665Z,93.60
2023-03-24T00:22:14.174Z,93.60
2023-03-24T00:22:50.664Z,93.50
2023-03-24T00:23:23.547Z,93.60
2023-03-24T00:23:58.233Z,93.60
2023-03-24T00:24:30.114Z,93.60
2023-03-24T00:25:04.334Z,93.60
2023-03-24T00:25:36.540Z,93.60
2023-03-24T00:26:15.602Z,93.50
2023-03-24T00:26:48.756Z,93.50
2023-03-24T00:27:21.059Z,93.50
2023-03-24T00:27:53.227Z,93.50
2023-03-24T00:28:25.187Z,93.50
2023-03-24T00:28:57.958Z,93.50
2023-03-24T00:29:30.138Z,93.60
2023-03-24T00:30:04.355Z,93.60
2023-03-24T00:30:36.314Z,93.50
2023-03-24T00:31:08.880Z,93.60
2023-03-24T00:31:41.278Z,93.50
2023-03-24T00:32:13.151Z,93.50
2023-03-24T00:32:46.238Z,93.60
2023-03-24T00:33:18.300Z,93.50
2023-03-24T00:33:51.262Z,93.60
2023-03-24T00:34:23.652Z,93.60
2023-03-24T00:34:55.413Z,93.60
2023-03-24T00:35:27.879Z,93.60
2023-03-24T00:36:00.862Z,93.60
2023-03-24T00:36:32.691Z,93.60
2023-03-24T00:37:06.068Z,93.70
2023-03-24T00:37:39.308Z,93.60
2023-03-24T00:38:12.167Z,93.60
2023-03-24T00:38:44.448Z,93.60
2023-03-24T00:39:19.746Z,93.60
2023-03-24T00:39:51.748Z,93.60
2023-03-24T00:40:23.727Z,93.60
2023-03-24T00:40:55.756Z,93.50
2023-03-24T00:41:28.902Z,93.50
2023-03-24T00:42:03.729Z,93.50
2023-03-24T00:42:36.925Z,93.50
2023-03-24T00:43:09.149Z,93.50
2023-03-24T00:43:41.521Z,93.50
2023-03-24T00:44:18.154Z,93.50
2023-03-24T00:44:53.868Z,93.60
2023-03-24T00:45:25.657Z,93.60
2023-03-24T00:46:01.964Z,93.60
2023-03-24T00:46:34.052Z,93.80
2023-03-24T00:47:05.964Z,93.60
2023-03-24T00:47:38.045Z,93.50
2023-03-24T00:48:11.232Z,93.60
2023-03-24T00:48:43.209Z,93.60
2023-03-24T00:49:15.618Z,93.60
2023-03-24T00:49:48.199Z,93.50
2023-03-24T00:50:20.767Z,93.50
2023-03-24T00:50:53.098Z,93.60
2023-03-24T00:51:25.105Z,93.50
2023-03-24T00:51:58.217Z,93.50
2023-03-24T00:52:33.914Z,93.50
2023-03-24T00:53:06.086Z,93.50
2023-03-24T00:53:43.508Z,93.50
2023-03-24T00:54:16.226Z,93.50
2023-03-24T00:54:50.212Z,93.50
2023-03-24T00:55:23.080Z,93.50
2023-03-24T00:55:56.410Z,93.30
2023-03-24T00:56:32.377Z,93.50
2023-03-24T00:57:05.441Z,93.50
2023-03-24T00:57:37.395Z,93.60
2023-03-24T00:58:09.461Z,93.60
2023-03-24T00:58:41.616Z,93.60
2023-03-24T00:59:13.923Z,93.60
2023-03-24T00:59:48.751Z,93.60
2023-03-24T01:00:26.131Z,93.60
2023-03-24T01:00:58.626Z,93.60
2023-03-24T01:01:34.740Z,93.70
2023-03-24T01:02:11.700Z,93.60
2023-03-24T01:02:46.397Z,93.60
2023-03-24T01:03:22.090Z,93.50
2023-03-24T01:03:54.424Z,93.60
2023-03-24T01:04:26.454Z,93.60
2023-03-24T01:05:02.076Z,93.60
2023-03-24T01:05:33.872Z,93.60
2023-03-24T01:06:05.853Z,93.60
2023-03-24T01:06:38.898Z,93.60
2023-03-24T01:07:11.226Z,93.60
2023-03-24T01:07:43.690Z,93.60
2023-03-24T01:08:21.877Z,93.60
2023-03-24T01:08:54.081Z,93.50
2023-03-24T01:09:26.061Z,93.60
2023-03-24T01:09:58.559Z,93.50
2023-03-24T01:10:33.411Z,93.60
2023-03-24T01:11:06.600Z,93.40
2023-03-24T01:11:41.211Z,93.50
2023-03-24T01:12:13.110Z,93.60
2023-03-24T01:12:44.987Z,93.60
2023-03-24T01:13:25.975Z,93.60
2023-03-24T01:13:58.529Z,93.70
2023-03-24T01:14:33.728Z,94.00
2023-03-24T01:15:15.272Z,93.70
2023-03-24T01:15:48.561Z,93.70
2023-03-24T01:16:25.546Z,93.60
2023-03-24T01:16:57.889Z,93.70
2023-03-24T01:17:29.803Z,93.70
2023-03-24T01:18:02.644Z,93.70
2023-03-24T01:18:35.012Z,93.60
2023-03-24T01:19:09.025Z,93.60
2023-03-24T01:19:41.369Z,93.70
2023-03-24T01:20:13.645Z,93.70
2023-03-24T01:20:48.962Z,93.70
2023-03-24T01:21:20.785Z,93.70
2023-03-24T01:21:54.311Z,93.70
2023-03-24T01:22:30.781Z,93.50
2023-03-24T01:23:05.669Z,93.70
2023-03-24T01:23:38.718Z,93.70
2023-03-24T01:24:10.944Z,93.70
2023-03-24T01:24:43.626Z,93.50
2023-03-24T01:25:19.027Z,93.70
2023-03-24T01:25:52.477Z,93.70
2023-03-24T01:26:24.244Z,93.70
2023-03-24T01:26:56.014Z,93.70
2023-03-24T01:27:27.912Z,93.60
2023-03-24T01:27:59.741Z,93.60
2023-03-24T01:28:31.913Z,93.40
2023-03-24T01:29:03.734Z,93.60
2023-03-24T01:29:35.512Z,93.80
2023-03-24T01:30:09.111Z,93.60
2023-03-24T01:30:41.126Z,93.60
2023-03-24T01:31:13.685Z,93.70
2023-03-24T01:31:45.595Z,93.70
2023-03-24T01:32:17.435Z,93.70
2023-03-24T01:32:51.098Z,93.60
2023-03-24T01:33:22.968Z,93.50
2023-03-24T01:33:54.865Z,93.50
2023-03-24T01:34:26.720Z,93.60
2023-03-24T01:34:58.557Z,93.60
2023-03-24T01:35:30.771Z,94.50
2023-03-24T01:36:35.276Z,93.40
2023-03-24T01:37:07.257Z,93.60
2023-03-24T01:37:40.346Z,93.40
2023-03-24T01:38:14.067Z,93.50
2023-03-24T01:38:46.038Z,93.40
2023-03-24T01:39:17.888Z,93.60
2023-03-24T01:39:51.624Z,93.50
2023-03-24T01:40:35.671Z,93.50
2023-03-24T01:41:07.817Z,93.50
2023-03-24T01:41:41.881Z,93.30
2023-03-24T01:42:22.938Z,93.30
2023-03-24T01:42:55.230Z,93.50
2023-03-24T01:43:32.886Z,93.60
2023-03-24T01:44:25.600Z,93.50
2023-03-24T01:45:39.219Z,93.50
2023-03-24T01:46:18.724Z,93.50
2023-03-24T01:46:50.541Z,93.50
2023-03-24T01:47:22.322Z,93.50
2023-03-24T01:47:56.000Z,93.60
2023-03-24T01:48:42.653Z,93.50
2023-03-24T01:49:14.584Z,93.50
2023-03-24T01:49:56.296Z,93.50
2023-03-24T01:50:29.843Z,93.50
2023-03-24T01:51:12.615Z,93.50
2023-03-24T01:51:47.395Z,93.40
2023-03-24T01:52:24.943Z,93.40
2023-03-24T01:52:56.999Z,93.30
2023-03-24T01:53:31.984Z,93.40
2023-03-24T01:54:18.552Z,93.40
2023-03-24T01:54:57.025Z,93.40
2023-03-24T01:55:32.575Z,93.30
2023-03-24T01:56:07.949Z,93.00
2023-03-24T01:56:48.690Z,93.30
2023-03-24T01:57:43.778Z,93.40
2023-03-24T01:58:17.117Z,93.10
2023-03-24T01:59:06.378Z,93.20
2023-03-24T01:59:49.311Z,93.30
2023-03-24T02:00:45.179Z,93.40
2023-03-24T02:01:46.694Z,93.30
2023-03-24T02:02:35.784Z,93.20
2023-03-24T02:03:18.321Z,93.30
2023-03-24T02:03:58.815Z,93.30
2023-03-24T02:04:41.049Z,93.10
2023-03-24T02:05:15.126Z,93.30
2023-03-24T02:05:52.469Z,93.30
2023-03-24T02:06:27.780Z,93.20
2023-03-24T02:07:18.448Z,93.00
2023-03-24T02:08:11.187Z,93.30
2023-03-24T02:08:54.931Z,93.40
2023-03-24T02:09:27.570Z,93.40
2023-03-24T02:10:05.238Z,93.50
2023-03-24T02:10:38.452Z,93.40
2023-03-24T02:11:10.755Z,93.40
2023-03-24T02:11:52.232Z,93.50
2023-03-24T02:12:24.568Z,93.70
2023-03-24T02:12:57.820Z,93.40
2023-03-24T02:13:30.099Z,93.50
2023-03-24T02:14:02.725Z,93.40
2023-03-24T02:14:34.939Z,93.00
2023-03-24T02:15:08.640Z,93.30
2023-03-24T02:16:18.470Z,93.40
2023-03-24T02:16:59.249Z,93.40
2023-03-24T02:17:38.213Z,93.40
2023-03-24T02:18:27.548Z,93.20
2023-03-24T02:18:59.361Z,93.40
2023-03-24T02:19:57.207Z,93.50
2023-03-24T02:20:35.269Z,93.40
2023-03-24T02:21:16.691Z,93.40
2023-03-24T02:22:14.744Z,93.40
2023-03-24T02:22:52.505Z,93.40
2023-03-24T02:23:53.090Z,93.50
2023-03-24T02:24:42.805Z,93.40
2023-03-24T02:25:49.599Z,93.40
2023-03-24T02:26:50.670Z,93.30
2023-03-24T02:27:48.790Z,93.50
2023-03-24T02:28:46.410Z,93.40
2023-03-24T02:29:39.165Z,93.50
2023-03-24T02:30:22.244Z,93.70
2023-03-24T02:31:06.408Z,93.40
2023-03-24T02:31:51.346Z,93.30
2023-03-24T02:32:52.140Z,93.50
2023-03-24T02:33:48.470Z,93.50
2023-03-24T02:34:35.926Z,93.40
2023-03-24T02:35:13.517Z,93.50
2023-03-24T02:36:24.878Z,93.40
2023-03-24T02:37:12.684Z,93.40
2023-03-24T02:38:03.790Z,93.40
2023-03-24T02:39:03.035Z,93.40
2023-03-24T02:39:38.057Z,93.50
2023-03-24T02:40:23.412Z,93.30
2023-03-24T02:40:57.759Z,93.50
2023-03-24T02:42:28.347Z,93.30
2023-03-24T02:43:03.080Z,93.50
2023-03-24T02:43:56.154Z,93.60
2023-03-24T02:44:51.549Z,93.50
2023-03-24T02:46:05.308Z,93.50
2023-03-24T02:46:46.948Z,93.50
2023-03-24T02:47:55.708Z,93.40
2023-03-24T02:48:48.901Z,93.50
2023-03-24T02:49:41.689Z,93.50
2023-03-24T02:50:39.828Z,93.50
2023-03-24T02:51:25.398Z,93.50
2023-03-24T02:52:16.713Z,93.50
2023-03-24T02:53:08.728Z,93.40
2023-03-24T02:54:13.722Z,93.50
2023-03-24T02:54:48.360Z,93.50
2023-03-24T02:55:32.913Z,93.60
2023-03-24T02:56:27.350Z,93.50
2023-03-24T02:57:40.664Z,93.60
2023-03-24T02:58:52.096Z,93.60
2023-03-24T02:59:40.547Z,93.30
2023-03-24T03:01:03.334Z,93.50
2023-03-24T03:01:58.759Z,93.10
2023-03-24T03:02:55.887Z,93.30
2023-03-24T03:03:38.297Z,93.20
2023-03-24T03:04:15.690Z,93.10
2023-03-24T03:04:56.700Z,93.40
2023-03-24T03:05:38.715Z,93.50
2023-03-24T03:06:22.111Z,93.50
2023-03-24T03:06:59.017Z,93.50
2023-03-24T03:07:37.408Z,93.40
2023-03-24T03:08:14.564Z,93.40
2023-03-24T03:08:48.388Z,93.50
2023-03-24T03:09:23.143Z,93.50
2023-03-24T03:10:04.036Z,93.50
2023-03-24T03:10:43.827Z,93.50
2023-03-24T03:11:17.802Z,93.40
2023-03-24T03:11:56.521Z,93.40
2023-03-24T03:12:34.432Z,93.40
2023-03-24T03:13:17.755Z,93.40
2023-03-24T03:13:57.961Z,93.60
2023-03-24T03:14:35.906Z,93.60
2023-03-24T03:15:37.672Z,93.40
2023-03-24T03:16:17.886Z,93.40
2023-03-24T03:17:00.706Z,93.10
2023-03-24T03:17:38.707Z,93.30
2023-03-24T03:18:40.523Z,93.40
2023-03-24T03:19:22.585Z,93.20
2023-03-24T03:20:02.204Z,93.20
2023-03-24T03:20:42.661Z,93.00
2023-03-24T03:21:18.132Z,93.10
2023-03-24T03:21:52.382Z,92.90
2023-03-24T03:22:30.976Z,93.30
2023-03-24T03:23:08.344Z,93.20
2023-03-24T03:23:47.756Z,93.10
2023-03-24T03:24:32.279Z,93.30
2023-03-24T03:25:05.403Z,93.20
2023-03-24T03:25:46.259Z,93.30
2023-03-24T03:26:24.054Z,93.00
2023-03-24T03:27:05.504Z,93.10
2023-03-24T03:27:40.056Z,93.10
2023-03-24T03:28:17.913Z,92.90
2023-03-24T03:28:58.296Z,93.20
2023-03-24T03:29:36.885Z,93.30
2023-03-24T03:30:18.348Z,93.20
2023-03-24T03:31:05.803Z,93.10
2023-03-24T03:31:53.018Z,92.90
2023-03-24T03:32:30.492Z,93.20
2023-03-24T03:33:10.272Z,93.20
2023-03-24T03:34:16.232Z,93.10
2023-03-24T03:35:01.418Z,93.20
2023-03-24T03:35:46.065Z,93.10
2023-03-24T03:36:52.270Z,93.20
2023-03-24T03:37:47.074Z,93.10
2023-03-24T03:38:41.826Z,93.20
2023-03-24T03:39:27.547Z,93.10
2023-03-24T03:40:06.681Z,93.10
2023-03-24T03:40:50.922Z,93.20
2023-03-24T03:41:25.572Z,93.30
2023-03-24T03:41:57.907Z,93.30
2023-03-24T03:42:30.849Z,93.30
2023-03-24T03:43:05.445Z,93.20
2023-03-24T03:43:37.928Z,93.20
2023-03-24T03:44:11.773Z,93.40
2023-03-24T03:44:44.126Z,93.40
2023-03-24T03:45:16.106Z,93.30
2023-03-24T03:45:48.451Z,93.20
2023-03-24T03:46:21.023Z,93.00
2023-03-24T03:46:55.400Z,93.30
2023-03-24T03:47:37.006Z,93.10
2023-03-24T03:48:08.931Z,93.00
2023-03-24T03:48:41.701Z,93.10
2023-03-24T03:49:13.630Z,93.10
2023-03-24T03:49:46.094Z,93.20
2023-03-24T03:50:18.016Z,93.20
2023-03-24T03:50:53.401Z,93.10
2023-03-24T03:51:34.076Z,93.10
2023-03-24T03:52:06.209Z,93.10
2023-03-24T03:52:41.519Z,92.40
2023-03-24T03:53:18.777Z,93.10
2023-03-24T03:54:01.067Z,93.10
2023-03-24T03:54:36.144Z,93.00
2023-03-24T03:55:10.010Z,93.00
2023-03-24T03:55:42.432Z,92.80
2023-03-24T03:56:18.314Z,93.10
2023-03-24T03:57:01.372Z,93.20
2023-03-24T03:57:42.577Z,93.10
2023-03-24T03:58:23.333Z,93.20
2023-03-24T03:59:01.378Z,93.20
2023-03-24T03:59:36.322Z,93.20
2023-03-24T04:00:20.391Z,93.20
2023-03-24T04:01:19.307Z,93.10
2023-03-24T04:02:56.208Z,93.10
2023-03-24T04:03:53.093Z,93.10
2023-03-24T04:04:59.754Z,93.20
2023-03-24T04:06:25.250Z,93.20
2023-03-24T04:07:24.189Z,93.10
2023-03-24T04:08:18.046Z,93.10
2023-03-24T04:09:21.304Z,93.10
2023-03-24T04:10:05.305Z,93.20
2023-03-24T04:10:45.510Z,93.20
2023-03-24T04:11:40.868Z,93.30
2023-03-24T04:12:24.505Z,93.00
2023-03-24T04:13:45.521Z,93.10
2023-03-24T04:14:57.361Z,93.20
2023-03-24T04:15:58.196Z,93.00
2023-03-24T04:17:14.670Z,93.30
2023-03-24T04:18:11.724Z,93.00
2023-03-24T04:19:28.975Z,93.00
2023-03-24T04:20:24.228Z,93.00
2023-03-24T04:21:10.168Z,93.00
2023-03-24T04:22:09.550Z,93.30
2023-03-24T04:23:00.515Z,92.90
2023-03-24T04:24:13.452Z,93.10
2023-03-24T04:25:14.248Z,93.10
2023-03-24T04:25:58.610Z,93.10
2023-03-24T04:26:45.381Z,93.80
2023-03-24T04:27:46.372Z,93.10
2023-03-24T04:28:31.484Z,93.10
2023-03-24T04:29:13.164Z,94.10
2023-03-24T04:30:06.193Z,93.00
2023-03-24T04:30:55.964Z,93.00
2023-03-24T04:32:02.259Z,93.00
2023-03-24T04:32:51.307Z,92.80
2023-03-24T04:33:48.669Z,93.00
2023-03-24T04:34:29.102Z,92.70
2023-03-24T04:35:10.177Z,92.70
2023-03-24T04:36:42.144Z,93.80
2023-03-24T04:37:48.680Z,92.80
2023-03-24T04:38:28.562Z,92.80
2023-03-24T04:39:19.739Z,92.60
2023-03-24T04:39:58.613Z,92.70
2023-03-24T04:40:36.680Z,92.70
2023-03-24T04:41:09.573Z,92.60
2023-03-24T04:41:45.192Z,92.60
2023-03-24T04:42:34.118Z,92.60
2023-03-24T04:43:09.622Z,92.50
2023-03-24T04:43:41.908Z,92.50
2023-03-24T04:44:17.660Z,92.60
2023-03-24T04:45:08.360Z,92.60
2023-03-24T04:46:05.532Z,92.60
2023-03-24T04:47:00.688Z,92.70
2023-03-24T04:47:54.375Z,92.70
2023-03-24T04:48:37.447Z,93.60
2023-03-24T04:49:15.564Z,93.00
2023-03-24T04:49:49.100Z,93.00
2023-03-24T04:50:36.841Z,92.70
2023-03-24T04:51:13.042Z,92.90
2023-03-24T04:52:03.069Z,92.90
2023-03-24T04:52:39.986Z,92.80
2023-03-24T04:53:11.940Z,92.80
2023-03-24T04:53:44.964Z,92.70
2023-03-24T04:54:16.712Z,92.60
2023-03-24T04:55:54.460Z,92.70
2023-03-24T04:56:54.986Z,92.70
2023-03-24T04:57:29.118Z,92.70
2023-03-24T04:58:06.002Z,92.50
2023-03-24T04:58:37.892Z,92.40
2023-03-24T04:59:09.789Z,92.40
2023-03-24T05:01:21.523Z,92.30
2023-03-24T05:02:13.070Z,92.50
2023-03-24T05:03:05.053Z,92.40
2023-03-24T05:03:37.951Z,92.30
2023-03-24T05:04:10.437Z,92.30
2023-03-24T05:06:05.783Z,92.30
2023-03-24T05:06:38.326Z,92.30
2023-03-24T05:20:19.010Z,91.90
2023-03-24T05:20:54.703Z,92.10
2023-03-24T05:21:27.555Z,92.10
2023-03-24T05:23:38.733Z,92.20
2023-03-24T05:24:12.295Z,92.10
2023-03-24T05:24:44.096Z,92.20
2023-03-24T05:25:48.866Z,92.10
2023-03-24T05:26:21.696Z,92.30
2023-03-24T05:27:06.842Z,92.30
2023-03-24T05:28:22.094Z,92.40
2023-03-24T05:29:27.856Z,92.20
2023-03-24T05:31:16.965Z,92.20
2023-03-24T05:33:40.546Z,92.10
2023-03-24T05:34:15.799Z,92.10
2023-03-24T05:41:18.961Z,92.00
2023-03-24T05:58:39.560Z,92.00
2023-03-24T06:00:16.208Z,92.30
2023-03-24T06:01:42.260Z,92.30
2023-03-24T06:02:25.081Z,92.30
2023-03-24T06:03:03.492Z,92.30
2023-03-24T06:03:41.879Z,92.30
2023-03-24T06:04:51.704Z,92.20
2023-03-24T06:06:00.143Z,92.10
2023-03-24T06:06:32.119Z,92.10
2023-03-24T06:07:42.450Z,92.30
2023-03-24T06:08:46.988Z,92.30
2023-03-24T06:11:04.058Z,92.20
2023-03-24T06:12:14.483Z,92.30
2023-03-24T06:12:56.091Z,92.30
2023-03-24T06:13:31.083Z,92.20
2023-03-24T06:14:43.853Z,92.20
2023-03-24T06:15:54.617Z,92.40
2023-03-24T06:16:39.925Z,92.50
2023-03-24T06:17:15.676Z,92.50
2023-03-24T06:18:36.749Z,92.30
2023-03-24T06:19:22.489Z,92.30
2023-03-24T06:20:15.982Z,92.30
2023-03-24T06:20:57.765Z,92.40
2023-03-24T06:21:35.325Z,92.50
2023-03-24T06:23:19.815Z,92.40
2023-03-24T06:24:24.007Z,92.50
2023-03-24T06:26:20.935Z,92.30
2023-03-24T06:27:02.471Z,92.30
2023-03-24T06:29:21.596Z,92.40
2023-03-24T06:29:53.393Z,92.50
2023-03-24T06:30:25.730Z,92.50
2023-03-24T06:34:29.181Z,92.40
2023-03-24T06:37:45.917Z,92.50
2023-03-24T06:38:19.914Z,92.40
2023-03-24T06:40:35.671Z,92.50
2023-03-24T06:41:09.087Z,92.50
2023-03-24T06:41:40.857Z,92.50
2023-03-24T06:42:13.047Z,92.60
2023-03-24T06:45:26.758Z,92.50
2023-03-24T06:46:32.565Z,92.40
2023-03-24T06:47:38.502Z,92.40
2023-03-24T06:49:15.435Z,92.40
2023-03-24T06:50:19.510Z,92.40
2023-03-24T06:51:24.839Z,92.50
2023-03-24T06:51:56.747Z,92.60
2023-03-24T06:52:30.790Z,92.60
2023-03-24T06:54:10.875Z,92.60
2023-03-24T06:54:42.670Z,92.60
2023-03-24T06:55:14.615Z,92.70
2023-03-24T06:55:47.217Z,92.70
2023-03-24T06:56:21.102Z,92.70
2023-03-24T06:58:27.992Z,92.90
2023-03-24T06:59:13.651Z,93.00
2023-03-24T06:59:46.140Z,93.00
2023-03-24T07:00:19.288Z,92.90
2023-03-24T07:01:49.576Z,92.90
2023-03-24T07:04:26.803Z,93.00
2023-03-24T07:05:19.044Z,93.00
2023-03-24T07:05:50.881Z,93.10
2023-03-24T07:06:23.225Z,93.10
2023-03-24T07:07:14.698Z,93.10
2023-03-24T07:08:42.912Z,93.10
2023-03-24T07:09:15.020Z,93.20
2023-03-24T07:09:46.735Z,93.20
2023-03-24T07:10:19.634Z,93.20
2023-03-24T07:10:51.485Z,93.10
2023-03-24T07:11:23.509Z,93.00
2023-03-24T07:12:03.359Z,93.10
2023-03-24T07:12:35.536Z,93.20
2023-03-24T07:13:08.278Z,93.20
2023-03-24T07:13:41.850Z,93.30
2023-03-24T07:14:13.630Z,93.40
2023-03-24T07:15:18.776Z,93.20
2023-03-24T07:15:51.312Z,93.30
2023-03-24T07:17:04.529Z,93.20
2023-03-24T07:17:47.746Z,93.40
2023-03-24T07:18:32.276Z,93.40
2023-03-24T07:19:45.862Z,93.60
2023-03-24T07:20:38.421Z,93.50
2023-03-24T07:21:21.606Z,93.50
2023-03-24T07:23:38.531Z,94.30
2023-03-24T07:25:04.667Z,93.60
2023-03-24T07:25:44.795Z,93.60
2023-03-24T07:26:29.468Z,93.60
2023-03-24T07:27:05.402Z,93.60
2023-03-24T07:27:42.783Z,93.70
2023-03-24T07:28:14.820Z,93.70
2023-03-24T07:28:47.297Z,93.50
2023-03-24T07:29:27.707Z,93.50
2023-03-24T07:30:29.998Z,93.60
2023-03-24T07:31:38.097Z,93.70
2023-03-24T07:33:17.653Z,93.50
2023-03-24T07:33:50.436Z,93.60
2023-03-24T07:34:22.596Z,93.60
2023-03-24T07:34:54.748Z,93.70
2023-03-24T07:35:59.471Z,93.80
2023-03-24T07:37:04.734Z,93.70
2023-03-24T07:37:37.300Z,93.80
2023-03-24T07:38:10.535Z,93.80
2023-03-24T07:38:42.515Z,93.70
2023-03-24T07:39:20.961Z,93.70
2023-03-24T07:39:53.263Z,93.60
2023-03-24T07:40:25.137Z,93.60
2023-03-24T07:41:33.167Z,93.60
2023-03-24T07:42:09.910Z,93.70
2023-03-24T07:43:18.742Z,93.80
2023-03-24T07:44:44.793Z,94.00
2023-03-24T07:45:17.836Z,94.00
2023-03-24T07:45:50.223Z,93.90
2023-03-24T07:46:22.392Z,93.80
2023-03-24T07:47:27.562Z,93.80
2023-03-24T07:48:03.572Z,93.80
2023-03-24T07:50:32.316Z,93.90
2023-03-24T07:51:05.132Z,93.90
2023-03-24T07:51:58.803Z,94.00
2023-03-24T07:53:11.246Z,94.20
2023-03-24T07:54:18.709Z,94.00
2023-03-24T07:54:53.160Z,93.90
2023-03-24T07:55:42.413Z,94.10
2023-03-24T07:56:19.173Z,94.20
2023-03-24T07:57:30.237Z,94.00
2023-03-24T07:58:03.474Z,94.00
2023-03-24T07:58:35.301Z,94.00
2023-03-24T07:59:19.304Z,94.20
2023-03-24T07:59:53.876Z,94.10
2023-03-24T08:00:44.637Z,94.10
2023-03-24T08:01:30.029Z,94.10
2023-03-24T08:05:16.639Z,94.00
2023-03-24T08:06:55.775Z,94.20
2023-03-24T08:08:00.166Z,94.10
2023-03-24T08:09:04.698Z,94.20
2023-03-24T08:09:36.650Z,94.30
2023-03-24T08:10:11.197Z,94.30
2023-03-24T08:10:42.999Z,94.10
2023-03-24T08:11:14.790Z,94.00
2023-03-24T08:12:52.810Z,93.90
2023-03-24T08:13:58.219Z,93.80
2023-03-24T08:15:02.749Z,93.80
2023-03-24T08:17:12.548Z,93.80
2023-03-24T08:18:50.543Z,93.70
2023-03-24T08:19:22.316Z,93.70
2023-03-24T08:21:36.965Z,93.90
2023-03-24T09:33:34.118Z,95.70
2023-03-24T09:49:34.702Z,96.20
2023-03-24T09:51:22.424Z,96.20
2023-03-24T10:03:22.863Z,96.30
2023-03-24T10:12:38.361Z,96.10
2023-03-24T10:22:44.142Z,95.80
2023-03-24T10:27:06.769Z,95.80
2023-03-24T10:41:23.478Z,95.30
2023-03-24T10:49:12.043Z,95.40
2023-03-24T11:36:47.544Z,95.50
2023-03-24T11:42:14.961Z,95.20
2023-03-24T11:44:22.934Z,95.20
2023-03-24T11:55:48.063Z,94.90
2023-03-24T11:56:39.817Z,94.90
2023-03-24T11:57:25.957Z,95.30
2023-03-24T11:58:01.084Z,95.10
2023-03-24T11:58:35.908Z,95.10
2023-03-24T12:03:01.756Z,94.90
2023-03-24T12:03:48.599Z,94.90
2023-03-24T12:09:42.733Z,94.10
2023-03-24T12:12:20.248Z,94.10
2023-03-24T12:14:41.117Z,94.10
2023-03-24T12:16:20.787Z,94.00
2023-03-24T12:18:35.148Z,94.00
2023-03-24T12:20:53.916Z,94.00
2023-03-24T12:22:43.453Z,94.20
2023-03-24T12:24:50.239Z,94.00
2023-03-24T12:33:47.803Z,93.90
2023-03-24T12:36:31.729Z,93.90
2023-03-24T12:37:33.095Z,93.80
2023-03-24T12:38:34.296Z,93.80
2023-03-24T12:40:17.908Z,93.60
2023-03-24T12:42:25.774Z,93.20
2023-03-24T12:44:28.682Z,93.00
2023-03-24T12:49:06.932Z,92.20
2023-03-24T12:49:41.452Z,92.30
2023-03-24T12:50:31.639Z,92.30
2023-03-24T12:51:10.547Z,92.50
2023-03-24T12:51:58.609Z,92.50
2023-03-24T12:52:30.317Z,92.60
2023-03-24T12:53:16.171Z,92.90
2023-03-24T12:54:06.217Z,93.00
2023-03-24T12:55:06.465Z,93.10
2023-03-24T12:55:56.097Z,93.50
2023-03-24T12:56:37.818Z,93.40
2023-03-24T12:57:15.672Z,93.10
2023-03-24T12:57:56.572Z,93.30
2023-03-24T12:58:42.979Z,93.80
2023-03-24T12:59:50.526Z,93.50
2023-03-24T13:00:30.875Z,93.50
2023-03-24T13:01:14.293Z,93.30
2023-03-24T13:01:52.813Z,93.20
2023-03-24T13:02:34.175Z,93.00
2023-03-24T13:03:14.302Z,92.70
2023-03-24T13:04:00.438Z,92.90
2023-03-24T13:04:37.814Z,92.70
2023-03-24T13:05:18.844Z,92.70
2023-03-24T13:05:59.760Z,92.70
2023-03-24T13:06:49.904Z,92.60
2023-03-24T13:07:28.388Z,92.60
2023-03-24T13:08:08.225Z,92.50
2023-03-24T13:08:45.138Z,92.20
2023-03-24T13:09:27.615Z,92.40
2023-03-24T13:10:02.100Z,92.50
2023-03-24T13:10:40.874Z,92.60
2023-03-24T13:11:31.940Z,92.60
2023-03-24T13:12:24.593Z,92.50
2023-03-24T13:13:06.134Z,92.50
2023-03-24T13:13:43.772Z,92.70
2023-03-24T13:14:25.239Z,92.40
2023-03-24T13:15:11.976Z,92.60
2023-03-24T13:15:52.225Z,92.50
2023-03-24T13:16:31.510Z,92.80
2023-03-24T13:17:11.805Z,93.10
2023-03-24T13:18:21.243Z,92.30
2023-03-24T13:18:56.670Z,92.70
2023-03-24T13:19:30.363Z,93.20
2023-03-24T13:20:07.064Z,93.30
2023-03-24T13:20:45.937Z,93.40
2023-03-24T13:21:23.416Z,93.60
2023-03-24T13:21:56.866Z,93.60
2023-03-24T13:22:31.103Z,93.60
2023-03-24T13:23:38.029Z,93.30
2023-03-24T13:24:14.988Z,93.20
2023-03-24T13:24:48.338Z,93.30
2023-03-24T13:25:32.308Z,93.70
2023-03-24T13:26:24.148Z,93.50
2023-03-24T13:26:58.431Z,94.00
2023-03-24T13:27:43.870Z,94.20
2023-03-24T13:28:24.969Z,93.50
2023-03-24T13:28:59.495Z,93.40
2023-03-24T13:30:05.403Z,93.60
2023-03-24T13:30:41.285Z,93.60
2023-03-24T13:31:15.440Z,93.70
2023-03-24T13:31:55.005Z,93.50
2023-03-24T13:32:40.319Z,93.90
2023-03-24T13:33:21.795Z,93.70
2023-03-24T13:33:55.885Z,93.50
2023-03-24T13:34:38.049Z,93.70
2023-03-24T13:35:28.436Z,93.70
2023-03-24T13:36:20.442Z,93.70
2023-03-24T13:37:03.907Z,93.70
2023-03-24T13:37:44.827Z,93.80
2023-03-24T13:38:38.340Z,93.80
2023-03-24T13:39:20.285Z,93.80
2023-03-24T13:39:58.674Z,94.10
2023-03-24T13:40:37.255Z,94.30
2023-03-24T13:41:27.098Z,94.00
2023-03-24T13:42:00.416Z,93.90
2023-03-24T13:42:42.206Z,93.70
2023-03-24T13:43:20.375Z,93.90
2023-03-24T13:43:59.401Z,94.10
2023-03-24T13:44:39.009Z,94.30
2023-03-24T13:45:44.631Z,93.50
2023-03-24T13:46:16.600Z,93.30
2023-03-24T13:47:15.721Z,93.20
2023-03-24T13:48:04.569Z,93.40
2023-03-24T13:48:43.285Z,93.40
2023-03-24T13:49:16.102Z,93.20
2023-03-24T13:50:13.309Z,93.40
2023-03-24T13:51:17.368Z,94.10
2023-03-24T13:51:49.215Z,93.10
2023-03-24T13:52:31.101Z,93.30
2023-03-24T13:53:16.062Z,93.00
2023-03-24T13:54:14.955Z,93.00
2023-03-24T13:54:48.929Z,93.20
2023-03-24T13:55:26.953Z,93.30
2023-03-24T13:56:00.814Z,92.80
2023-03-24T13:56:38.254Z,93.10
2023-03-24T13:57:20.395Z,93.20
2023-03-24T13:58:10.519Z,93.20
2023-03-24T13:58:48.821Z,93.30
2023-03-24T13:59:24.073Z,93.10
2023-03-24T14:00:18.412Z,93.50
2023-03-24T14:01:11.391Z,93.50
2023-03-24T14:01:47.776Z,93.90
2023-03-24T14:02:31.624Z,93.10
2023-03-24T14:03:03.595Z,92.80
2023-03-24T14:03:40.533Z,92.90
2023-03-24T14:04:15.495Z,92.60
2023-03-24T14:04:50.362Z,92.60
2023-03-24T14:05:41.645Z,93.50
2023-03-24T14:06:17.740Z,92.70
2023-03-24T14:06:58.870Z,92.60
2023-03-24T14:07:44.481Z,92.50
2023-03-24T14:08:17.365Z,92.50
2023-03-24T14:08:52.261Z,92.80
2023-03-24T14:09:31.034Z,92.20
2023-03-24T14:10:15.608Z,92.50
2023-03-24T14:10:51.736Z,92.10
2023-03-24T14:11:33.781Z,92.00
2023-03-24T14:12:09.735Z,92.10
2023-03-24T14:12:59.699Z,92.10
2023-03-24T14:13:46.284Z,92.10
2023-03-24T14:14:21.654Z,92.10
2023-03-24T14:15:12.996Z,92.00
2023-03-24T14:15:52.470Z,91.90
2023-03-24T14:16:33.697Z,91.70
2023-03-24T14:17:08.601Z,92.10
2023-03-24T14:17:45.910Z,91.90
2023-03-24T14:18:24.120Z,91.80
2023-03-24T14:19:19.718Z,92.00
2023-03-24T14:19:57.344Z,92.30
2023-03-24T14:20:36.123Z,92.00
2023-03-24T14:21:09.203Z,92.20
2023-03-24T14:21:41.570Z,92.10
2023-03-24T14:22:22.893Z,91.90
2023-03-24T14:22:55.485Z,91.90